sensor_id;sensor_type;location;lat;lon;timestamp;temperature;humidity
63094;DHT22;49183;51.380;0.098;2023-12-20T00:01:22;5.30;87.60
63094;DHT22;49183;51.380;0.098;2023-12-20T00:03:50;5.40;87.60
63094;DHT22;49183;51.380;0.098;2023-12-20T00:06:18;5.40;87.50
63094;DHT22;49183;51.380;0.098;2023-12-20T00:08:46;5.50;87.50
63094;DHT22;49183;51.380;0.098;2023-12-20T00:11:14;5.60;87.30
63094;DHT22;49183;51.380;0.098;2023-12-20T00:13:41;5.60;87.20
63094;DHT22;49183;51.380;0.098;2023-12-20T00:16:09;5.60;87.30
63094;DHT22;49183;51.380;0.098;2023-12-20T00:18:37;5.70;87.20
63094;DHT22;49183;51.380;0.098;2023-12-20T00:21:05;5.70;87.10
63094;DHT22;49183;51.380;0.098;2023-12-20T00:23:33;5.70;87.00
63094;DHT22;49183;51.380;0.098;2023-12-20T00:26:02;5.70;87.00
63094;DHT22;49183;51.380;0.098;2023-12-20T00:28:29;5.60;87.10
63094;DHT22;49183;51.380;0.098;2023-12-20T00:30:58;5.70;87.20
63094;DHT22;49183;51.380;0.098;2023-12-20T00:33:26;5.70;87.20
63094;DHT22;49183;51.380;0.098;2023-12-20T00:35:54;5.80;87.20
63094;DHT22;49183;51.380;0.098;2023-12-20T00:38:22;5.80;87.10
63094;DHT22;49183;51.380;0.098;2023-12-20T00:40:50;5.80;87.10
63094;DHT22;49183;51.380;0.098;2023-12-20T00:43:18;5.90;86.90
63094;DHT22;49183;51.380;0.098;2023-12-20T00:45:45;5.90;86.90
63094;DHT22;49183;51.380;0.098;2023-12-20T00:48:13;6.00;86.90
63094;DHT22;49183;51.380;0.098;2023-12-20T00:50:41;6.00;86.80
63094;DHT22;49183;51.380;0.098;2023-12-20T00:53:09;6.10;86.90
63094;DHT22;49183;51.380;0.098;2023-12-20T00:55:37;6.10;86.90
63094;DHT22;49183;51.380;0.098;2023-12-20T00:58:04;6.10;86.90
63094;DHT22;49183;51.380;0.098;2023-12-20T01:00:32;6.10;86.90
63094;DHT22;49183;51.380;0.098;2023-12-20T01:03:00;6.00;87.00
63094;DHT22;49183;51.380;0.098;2023-12-20T01:05:28;6.00;87.00
63094;DHT22;49183;51.380;0.098;2023-12-20T01:07:56;6.00;87.10
63094;DHT22;49183;51.380;0.098;2023-12-20T01:10:24;6.00;87.10
63094;DHT22;49183;51.380;0.098;2023-12-20T01:12:55;6.00;87.00
63094;DHT22;49183;51.380;0.098;2023-12-20T01:15:23;6.10;87.00
63094;DHT22;49183;51.380;0.098;2023-12-20T01:17:54;6.00;87.00
63094;DHT22;49183;51.380;0.098;2023-12-20T01:20:24;6.10;87.00
63094;DHT22;49183;51.380;0.098;2023-12-20T01:22:53;6.00;87.00
63094;DHT22;49183;51.380;0.098;2023-12-20T01:25:20;6.10;87.00
63094;DHT22;49183;51.380;0.098;2023-12-20T01:27:49;6.10;87.00
63094;DHT22;49183;51.380;0.098;2023-12-20T01:30:17;6.10;87.00
63094;DHT22;49183;51.380;0.098;2023-12-20T01:32:45;6.20;87.00
63094;DHT22;49183;51.380;0.098;2023-12-20T01:35:13;6.20;86.90
63094;DHT22;49183;51.380;0.098;2023-12-20T01:37:41;6.20;86.90
63094;DHT22;49183;51.380;0.098;2023-12-20T01:40:10;6.20;86.80
63094;DHT22;49183;51.380;0.098;2023-12-20T01:42:38;6.20;86.80
63094;DHT22;49183;51.380;0.098;2023-12-20T01:45:06;6.20;86.80
63094;DHT22;49183;51.380;0.098;2023-12-20T01:47:35;6.20;86.90
63094;DHT22;49183;51.380;0.098;2023-12-20T01:50:05;6.20;86.90
63094;DHT22;49183;51.380;0.098;2023-12-20T01:52:36;6.30;86.90
63094;DHT22;49183;51.380;0.098;2023-12-20T01:55:04;6.30;86.90
63094;DHT22;49183;51.380;0.098;2023-12-20T01:57:41;6.30;86.90
63094;DHT22;49183;51.380;0.098;2023-12-20T02:00:11;6.30;86.90
63094;DHT22;49183;51.380;0.098;2023-12-20T02:02:40;6.40;86.80
63094;DHT22;49183;51.380;0.098;2023-12-20T02:05:09;6.40;86.80
63094;DHT22;49183;51.380;0.098;2023-12-20T02:07:37;6.40;86.80
63094;DHT22;49183;51.380;0.098;2023-12-20T02:10:06;6.40;86.90
63094;DHT22;49183;51.380;0.098;2023-12-20T02:12:34;6.50;86.90
63094;DHT22;49183;51.380;0.098;2023-12-20T02:15:03;6.60;86.90
63094;DHT22;49183;51.380;0.098;2023-12-20T02:17:33;6.60;86.90
63094;DHT22;49183;51.380;0.098;2023-12-20T02:20:01;6.70;86.80
63094;DHT22;49183;51.380;0.098;2023-12-20T02:22:30;6.70;86.80
63094;DHT22;49183;51.380;0.098;2023-12-20T02:24:59;6.80;86.80
63094;DHT22;49183;51.380;0.098;2023-12-20T02:27:30;6.80;86.80
63094;DHT22;49183;51.380;0.098;2023-12-20T02:29:59;6.80;86.70
63094;DHT22;49183;51.380;0.098;2023-12-20T02:32:27;6.80;86.70
63094;DHT22;49183;51.380;0.098;2023-12-20T02:34:57;6.80;86.70
63094;DHT22;49183;51.380;0.098;2023-12-20T02:37:26;6.90;86.60
63094;DHT22;49183;51.380;0.098;2023-12-20T02:39:53;6.90;86.50
63094;DHT22;49183;51.380;0.098;2023-12-20T02:42:22;6.80;86.50
63094;DHT22;49183;51.380;0.098;2023-12-20T02:44:50;6.90;86.50
63094;DHT22;49183;51.380;0.098;2023-12-20T02:47:17;6.90;86.40
63094;DHT22;49183;51.380;0.098;2023-12-20T02:49:46;6.90;86.40
63094;DHT22;49183;51.380;0.098;2023-12-20T02:52:13;6.90;86.30
63094;DHT22;49183;51.380;0.098;2023-12-20T02:54:41;6.90;86.40
63094;DHT22;49183;51.380;0.098;2023-12-20T02:57:09;6.90;86.40
63094;DHT22;49183;51.380;0.098;2023-12-20T02:59:38;6.90;86.40
63094;DHT22;49183;51.380;0.098;2023-12-20T03:02:05;6.90;86.40
63094;DHT22;49183;51.380;0.098;2023-12-20T03:04:34;6.90;86.40
63094;DHT22;49183;51.380;0.098;2023-12-20T03:07:02;7.00;86.30
63094;DHT22;49183;51.380;0.098;2023-12-20T03:09:30;7.10;86.20
63094;DHT22;49183;51.380;0.098;2023-12-20T03:12:13;7.10;86.20
63094;DHT22;49183;51.380;0.098;2023-12-20T03:14:41;7.20;86.10
63094;DHT22;49183;51.380;0.098;2023-12-20T03:17:11;7.30;86.00
63094;DHT22;49183;51.380;0.098;2023-12-20T03:19:38;7.30;85.90
63094;DHT22;49183;51.380;0.098;2023-12-20T03:22:06;7.30;85.90
63094;DHT22;49183;51.380;0.098;2023-12-20T03:24:34;7.30;85.90
63094;DHT22;49183;51.380;0.098;2023-12-20T03:27:03;7.30;85.90
63094;DHT22;49183;51.380;0.098;2023-12-20T03:29:31;7.30;85.90
63094;DHT22;49183;51.380;0.098;2023-12-20T03:31:59;7.30;85.90
63094;DHT22;49183;51.380;0.098;2023-12-20T03:34:27;7.40;85.90
63094;DHT22;49183;51.380;0.098;2023-12-20T03:36:56;7.40;85.80
63094;DHT22;49183;51.380;0.098;2023-12-20T03:39:25;7.50;85.80
63094;DHT22;49183;51.380;0.098;2023-12-20T03:41:53;7.50;85.70
63094;DHT22;49183;51.380;0.098;2023-12-20T03:44:21;7.60;85.70
63094;DHT22;49183;51.380;0.098;2023-12-20T03:46:49;7.60;85.70
63094;DHT22;49183;51.380;0.098;2023-12-20T03:49:18;7.60;85.60
63094;DHT22;49183;51.380;0.098;2023-12-20T03:51:46;7.70;85.60
63094;DHT22;49183;51.380;0.098;2023-12-20T03:54:14;7.80;85.50
63094;DHT22;49183;51.380;0.098;2023-12-20T03:56:41;7.80;85.50
63094;DHT22;49183;51.380;0.098;2023-12-20T03:59:09;7.80;85.50
63094;DHT22;49183;51.380;0.098;2023-12-20T04:01:37;7.80;85.50
63094;DHT22;49183;51.380;0.098;2023-12-20T04:04:05;7.90;85.30
63094;DHT22;49183;51.380;0.098;2023-12-20T04:06:33;7.90;85.10
63094;DHT22;49183;51.380;0.098;2023-12-20T04:09:02;7.90;85.10
63094;DHT22;49183;51.380;0.098;2023-12-20T04:11:29;7.90;85.00
63094;DHT22;49183;51.380;0.098;2023-12-20T04:13:59;7.90;84.90
63094;DHT22;49183;51.380;0.098;2023-12-20T04:16:26;8.00;84.90
63094;DHT22;49183;51.380;0.098;2023-12-20T04:18:55;8.00;84.80
63094;DHT22;49183;51.380;0.098;2023-12-20T04:21:23;8.00;84.80
63094;DHT22;49183;51.380;0.098;2023-12-20T04:23:52;7.90;85.10
63094;DHT22;49183;51.380;0.098;2023-12-20T04:26:20;7.80;85.60
63094;DHT22;49183;51.380;0.098;2023-12-20T04:28:49;7.80;85.90
63094;DHT22;49183;51.380;0.098;2023-12-20T04:31:20;7.80;86.00
63094;DHT22;49183;51.380;0.098;2023-12-20T04:33:49;7.90;86.00
63094;DHT22;49183;51.380;0.098;2023-12-20T04:36:17;7.90;86.10
63094;DHT22;49183;51.380;0.098;2023-12-20T04:38:45;7.90;86.10
63094;DHT22;49183;51.380;0.098;2023-12-20T04:41:14;7.90;86.10
63094;DHT22;49183;51.380;0.098;2023-12-20T04:43:43;7.90;86.10
63094;DHT22;49183;51.380;0.098;2023-12-20T04:46:12;7.90;86.00
63094;DHT22;49183;51.380;0.098;2023-12-20T04:48:40;8.00;85.90
63094;DHT22;49183;51.380;0.098;2023-12-20T04:51:09;7.90;85.70
63094;DHT22;49183;51.380;0.098;2023-12-20T04:53:37;8.00;85.70
63094;DHT22;49183;51.380;0.098;2023-12-20T04:56:05;7.90;85.80
63094;DHT22;49183;51.380;0.098;2023-12-20T04:58:32;8.00;85.70
63094;DHT22;49183;51.380;0.098;2023-12-20T05:01:00;8.10;85.70
63094;DHT22;49183;51.380;0.098;2023-12-20T05:03:28;8.10;85.60
63094;DHT22;49183;51.380;0.098;2023-12-20T05:05:56;8.10;85.60
63094;DHT22;49183;51.380;0.098;2023-12-20T05:08:24;8.10;85.50
63094;DHT22;49183;51.380;0.098;2023-12-20T05:10:55;8.10;85.40
63094;DHT22;49183;51.380;0.098;2023-12-20T05:13:23;8.20;85.20
63094;DHT22;49183;51.380;0.098;2023-12-20T05:16:05;8.10;85.10
63094;DHT22;49183;51.380;0.098;2023-12-20T05:18:33;8.10;85.00
63094;DHT22;49183;51.380;0.098;2023-12-20T05:21:01;8.10;85.00
63094;DHT22;49183;51.380;0.098;2023-12-20T05:23:29;8.10;85.10
63094;DHT22;49183;51.380;0.098;2023-12-20T05:25:57;8.10;85.10
63094;DHT22;49183;51.380;0.098;2023-12-20T05:28:26;8.10;85.10
63094;DHT22;49183;51.380;0.098;2023-12-20T05:30:57;8.00;85.30
63094;DHT22;49183;51.380;0.098;2023-12-20T05:33:25;8.00;85.50
63094;DHT22;49183;51.380;0.098;2023-12-20T05:35:53;7.90;85.80
63094;DHT22;49183;51.380;0.098;2023-12-20T05:38:20;7.90;86.00
63094;DHT22;49183;51.380;0.098;2023-12-20T05:40:49;7.90;86.20
63094;DHT22;49183;51.380;0.098;2023-12-20T05:43:17;7.90;86.20
63094;DHT22;49183;51.380;0.098;2023-12-20T05:45:45;7.90;86.30
63094;DHT22;49183;51.380;0.098;2023-12-20T05:48:13;7.90;86.40
63094;DHT22;49183;51.380;0.098;2023-12-20T05:50:41;7.90;86.50
63094;DHT22;49183;51.380;0.098;2023-12-20T05:53:08;7.90;86.50
63094;DHT22;49183;51.380;0.098;2023-12-20T05:55:36;8.00;86.50
63094;DHT22;49183;51.380;0.098;2023-12-20T05:58:05;8.10;86.50
63094;DHT22;49183;51.380;0.098;2023-12-20T06:00:34;8.00;86.40
63094;DHT22;49183;51.380;0.098;2023-12-20T06:03:02;8.10;86.40
63094;DHT22;49183;51.380;0.098;2023-12-20T06:05:31;8.10;86.40
63094;DHT22;49183;51.380;0.098;2023-12-20T06:07:59;8.10;86.50
63094;DHT22;49183;51.380;0.098;2023-12-20T06:10:31;8.10;86.40
63094;DHT22;49183;51.380;0.098;2023-12-20T06:13:00;8.10;86.40
63094;DHT22;49183;51.380;0.098;2023-12-20T06:15:28;8.10;86.40
63094;DHT22;49183;51.380;0.098;2023-12-20T06:17:56;8.10;86.30
63094;DHT22;49183;51.380;0.098;2023-12-20T06:20:23;8.20;86.30
63094;DHT22;49183;51.380;0.098;2023-12-20T06:22:52;8.10;86.30
63094;DHT22;49183;51.380;0.098;2023-12-20T06:25:21;8.10;86.30
63094;DHT22;49183;51.380;0.098;2023-12-20T06:27:48;8.00;86.40
63094;DHT22;49183;51.380;0.098;2023-12-20T06:30:17;7.90;86.50
63094;DHT22;49183;51.380;0.098;2023-12-20T06:32:44;7.90;86.70
63094;DHT22;49183;51.380;0.098;2023-12-20T06:35:15;7.80;86.80
63094;DHT22;49183;51.380;0.098;2023-12-20T06:37:43;7.80;86.90
63094;DHT22;49183;51.380;0.098;2023-12-20T06:40:12;7.70;87.00
63094;DHT22;49183;51.380;0.098;2023-12-20T06:42:46;7.60;87.10
63094;DHT22;49183;51.380;0.098;2023-12-20T06:45:32;7.60;87.30
63094;DHT22;49183;51.380;0.098;2023-12-20T06:47:59;7.50;87.40
63094;DHT22;49183;51.380;0.098;2023-12-20T06:50:27;7.50;87.50
63094;DHT22;49183;51.380;0.098;2023-12-20T06:52:55;7.40;87.50
63094;DHT22;49183;51.380;0.098;2023-12-20T06:55:24;7.50;87.70
63094;DHT22;49183;51.380;0.098;2023-12-20T06:57:52;7.50;87.70
63094;DHT22;49183;51.380;0.098;2023-12-20T07:00:20;7.50;87.70
63094;DHT22;49183;51.380;0.098;2023-12-20T07:02:48;7.60;87.70
63094;DHT22;49183;51.380;0.098;2023-12-20T07:05:17;7.70;87.60
63094;DHT22;49183;51.380;0.098;2023-12-20T07:07:47;7.70;87.50
63094;DHT22;49183;51.380;0.098;2023-12-20T07:10:15;7.80;87.40
63094;DHT22;49183;51.380;0.098;2023-12-20T07:12:44;7.80;87.30
63094;DHT22;49183;51.380;0.098;2023-12-20T07:15:11;7.80;87.30
63094;DHT22;49183;51.380;0.098;2023-12-20T07:17:40;7.80;87.20
63094;DHT22;49183;51.380;0.098;2023-12-20T07:20:08;7.80;87.20
63094;DHT22;49183;51.380;0.098;2023-12-20T07:22:38;7.90;87.20
63094;DHT22;49183;51.380;0.098;2023-12-20T07:25:07;7.90;87.30
63094;DHT22;49183;51.380;0.098;2023-12-20T07:27:35;7.90;87.30
63094;DHT22;49183;51.380;0.098;2023-12-20T07:30:03;7.90;87.30
63094;DHT22;49183;51.380;0.098;2023-12-20T07:32:32;7.90;87.30
63094;DHT22;49183;51.380;0.098;2023-12-20T07:35:00;7.90;87.30
63094;DHT22;49183;51.380;0.098;2023-12-20T07:37:28;8.00;87.30
63094;DHT22;49183;51.380;0.098;2023-12-20T07:39:56;8.00;87.30
63094;DHT22;49183;51.380;0.098;2023-12-20T07:42:25;8.10;87.30
63094;DHT22;49183;51.380;0.098;2023-12-20T07:44:53;8.00;87.30
63094;DHT22;49183;51.380;0.098;2023-12-20T07:47:23;8.00;87.40
63094;DHT22;49183;51.380;0.098;2023-12-20T07:49:51;7.90;87.50
63094;DHT22;49183;51.380;0.098;2023-12-20T07:52:20;7.90;87.60
63094;DHT22;49183;51.380;0.098;2023-12-20T07:54:50;7.90;87.70
63094;DHT22;49183;51.380;0.098;2023-12-20T07:57:18;7.80;87.80
63094;DHT22;49183;51.380;0.098;2023-12-20T07:59:46;7.80;88.00
63094;DHT22;49183;51.380;0.098;2023-12-20T08:02:14;7.80;88.10
63094;DHT22;49183;51.380;0.098;2023-12-20T08:04:42;7.80;88.10
63094;DHT22;49183;51.380;0.098;2023-12-20T08:07:10;7.90;88.10
63094;DHT22;49183;51.380;0.098;2023-12-20T08:09:39;7.80;88.10
63094;DHT22;49183;51.380;0.098;2023-12-20T08:12:08;7.90;88.10
63094;DHT22;49183;51.380;0.098;2023-12-20T08:14:37;7.90;88.00
63094;DHT22;49183;51.380;0.098;2023-12-20T08:17:05;7.90;87.90
63094;DHT22;49183;51.380;0.098;2023-12-20T08:19:32;7.90;87.80
63094;DHT22;49183;51.380;0.098;2023-12-20T08:22:02;7.90;87.80
63094;DHT22;49183;51.380;0.098;2023-12-20T08:24:30;7.90;87.90
63094;DHT22;49183;51.380;0.098;2023-12-20T08:26:58;7.90;87.90
63094;DHT22;49183;51.380;0.098;2023-12-20T08:29:26;7.90;87.90
63094;DHT22;49183;51.380;0.098;2023-12-20T08:31:55;7.90;87.80
63094;DHT22;49183;51.380;0.098;2023-12-20T08:34:23;8.00;87.70
63094;DHT22;49183;51.380;0.098;2023-12-20T08:36:52;8.00;87.60
63094;DHT22;49183;51.380;0.098;2023-12-20T08:39:21;8.10;87.60
63094;DHT22;49183;51.380;0.098;2023-12-20T08:41:48;8.10;87.40
63094;DHT22;49183;51.380;0.098;2023-12-20T08:44:17;8.10;87.40
63094;DHT22;49183;51.380;0.098;2023-12-20T08:46:45;8.10;87.20
63094;DHT22;49183;51.380;0.098;2023-12-20T08:49:13;8.20;87.10
63094;DHT22;49183;51.380;0.098;2023-12-20T08:51:41;8.20;87.00
63094;DHT22;49183;51.380;0.098;2023-12-20T08:54:10;8.20;87.00
63094;DHT22;49183;51.380;0.098;2023-12-20T08:56:38;8.20;87.00
63094;DHT22;49183;51.380;0.098;2023-12-20T08:59:06;8.20;87.00
63094;DHT22;49183;51.380;0.098;2023-12-20T09:01:34;8.20;86.90
63094;DHT22;49183;51.380;0.098;2023-12-20T09:04:02;8.20;86.90
63094;DHT22;49183;51.380;0.098;2023-12-20T09:06:31;8.20;86.80
63094;DHT22;49183;51.380;0.098;2023-12-20T09:09:00;8.20;86.80
63094;DHT22;49183;51.380;0.098;2023-12-20T09:11:27;8.20;86.80
63094;DHT22;49183;51.380;0.098;2023-12-20T09:13:56;8.20;86.80
63094;DHT22;49183;51.380;0.098;2023-12-20T09:16:23;8.20;86.80
63094;DHT22;49183;51.380;0.098;2023-12-20T09:18:51;8.20;86.70
63094;DHT22;49183;51.380;0.098;2023-12-20T09:21:19;8.20;86.70
63094;DHT22;49183;51.380;0.098;2023-12-20T09:23:47;8.20;86.80
63094;DHT22;49183;51.380;0.098;2023-12-20T09:26:15;8.20;86.80
63094;DHT22;49183;51.380;0.098;2023-12-20T09:28:45;8.20;86.70
63094;DHT22;49183;51.380;0.098;2023-12-20T09:31:13;8.20;86.70
63094;DHT22;49183;51.380;0.098;2023-12-20T09:33:42;8.30;86.70
63094;DHT22;49183;51.380;0.098;2023-12-20T09:36:11;8.30;86.70
63094;DHT22;49183;51.380;0.098;2023-12-20T09:38:39;8.30;86.70
63094;DHT22;49183;51.380;0.098;2023-12-20T09:41:07;8.40;86.70
63094;DHT22;49183;51.380;0.098;2023-12-20T09:43:40;8.40;86.60
63094;DHT22;49183;51.380;0.098;2023-12-20T09:46:10;8.50;86.60
63094;DHT22;49183;51.380;0.098;2023-12-20T09:48:41;8.40;86.50
63094;DHT22;49183;51.380;0.098;2023-12-20T09:51:10;8.40;86.60
63094;DHT22;49183;51.380;0.098;2023-12-20T09:53:38;8.40;86.70
63094;DHT22;49183;51.380;0.098;2023-12-20T09:56:08;8.40;86.90
63094;DHT22;49183;51.380;0.098;2023-12-20T09:58:37;8.40;87.00
63094;DHT22;49183;51.380;0.098;2023-12-20T10:01:07;8.40;87.10
63094;DHT22;49183;51.380;0.098;2023-12-20T10:03:36;8.40;87.20
63094;DHT22;49183;51.380;0.098;2023-12-20T10:06:08;8.40;87.30
63094;DHT22;49183;51.380;0.098;2023-12-20T10:08:37;8.40;87.40
63094;DHT22;49183;51.380;0.098;2023-12-20T10:11:05;8.40;87.50
63094;DHT22;49183;51.380;0.098;2023-12-20T10:13:33;8.40;87.60
63094;DHT22;49183;51.380;0.098;2023-12-20T10:16:02;8.40;87.60
63094;DHT22;49183;51.380;0.098;2023-12-20T10:18:30;8.50;87.60
63094;DHT22;49183;51.380;0.098;2023-12-20T10:21:06;8.40;87.60
63094;DHT22;49183;51.380;0.098;2023-12-20T10:23:38;8.50;87.60
63094;DHT22;49183;51.380;0.098;2023-12-20T10:26:07;8.50;87.60
63094;DHT22;49183;51.380;0.098;2023-12-20T10:28:36;8.60;87.60
63094;DHT22;49183;51.380;0.098;2023-12-20T10:31:05;8.60;87.60
63094;DHT22;49183;51.380;0.098;2023-12-20T10:33:34;8.60;87.60
63094;DHT22;49183;51.380;0.098;2023-12-20T10:36:03;8.70;87.60
63094;DHT22;49183;51.380;0.098;2023-12-20T10:38:31;8.70;87.60
63094;DHT22;49183;51.380;0.098;2023-12-20T10:40:59;8.70;87.60
63094;DHT22;49183;51.380;0.098;2023-12-20T10:43:30;8.80;87.70
63094;DHT22;49183;51.380;0.098;2023-12-20T10:46:03;8.70;87.80
63094;DHT22;49183;51.380;0.098;2023-12-20T10:48:32;8.70;87.90
63094;DHT22;49183;51.380;0.098;2023-12-20T10:51:00;8.70;88.20
63094;DHT22;49183;51.380;0.098;2023-12-20T10:53:29;8.70;88.30
63094;DHT22;49183;51.380;0.098;2023-12-20T10:56:00;8.70;88.50
63094;DHT22;49183;51.380;0.098;2023-12-20T10:58:32;8.70;88.60
63094;DHT22;49183;51.380;0.098;2023-12-20T11:01:03;8.80;88.70
63094;DHT22;49183;51.380;0.098;2023-12-20T11:03:36;8.80;88.70
63094;DHT22;49183;51.380;0.098;2023-12-20T11:09:22;8.90;88.70
63094;DHT22;49183;51.380;0.098;2023-12-20T11:12:26;8.90;88.70
63094;DHT22;49183;51.380;0.098;2023-12-20T11:14:55;9.00;88.70
63094;DHT22;49183;51.380;0.098;2023-12-20T11:17:26;9.10;88.50
63094;DHT22;49183;51.380;0.098;2023-12-20T11:22:31;9.20;88.40
63094;DHT22;49183;51.380;0.098;2023-12-20T11:25:04;9.30;88.20
63094;DHT22;49183;51.380;0.098;2023-12-20T11:27:40;9.30;88.00
63094;DHT22;49183;51.380;0.098;2023-12-20T11:30:09;9.30;87.90
63094;DHT22;49183;51.380;0.098;2023-12-20T11:32:37;9.40;87.70
63094;DHT22;49183;51.380;0.098;2023-12-20T11:37:38;9.50;87.40
63094;DHT22;49183;51.380;0.098;2023-12-20T11:40:07;9.50;87.20
63094;DHT22;49183;51.380;0.098;2023-12-20T11:42:51;9.60;87.10
63094;DHT22;49183;51.380;0.098;2023-12-20T11:45:24;9.60;87.00
63094;DHT22;49183;51.380;0.098;2023-12-20T11:47:57;9.60;86.80
63094;DHT22;49183;51.380;0.098;2023-12-20T11:50:26;9.60;86.70
63094;DHT22;49183;51.380;0.098;2023-12-20T11:52:56;9.50;86.70
63094;DHT22;49183;51.380;0.098;2023-12-20T11:55:25;9.60;86.70
63094;DHT22;49183;51.380;0.098;2023-12-20T11:57:53;9.60;86.70
63094;DHT22;49183;51.380;0.098;2023-12-20T12:00:22;9.60;86.60
63094;DHT22;49183;51.380;0.098;2023-12-20T12:03:00;9.60;86.50
63094;DHT22;49183;51.380;0.098;2023-12-20T12:05:31;9.60;86.60
63094;DHT22;49183;51.380;0.098;2023-12-20T12:08:00;9.70;86.40
63094;DHT22;49183;51.380;0.098;2023-12-20T12:10:31;9.70;86.40
63094;DHT22;49183;51.380;0.098;2023-12-20T12:13:00;9.80;86.20
63094;DHT22;49183;51.380;0.098;2023-12-20T12:15:29;9.80;86.10
63094;DHT22;49183;51.380;0.098;2023-12-20T12:17:57;9.90;85.90
63094;DHT22;49183;51.380;0.098;2023-12-20T12:20:27;9.90;85.80
63094;DHT22;49183;51.380;0.098;2023-12-20T12:23:02;9.90;85.70
63094;DHT22;49183;51.380;0.098;2023-12-20T12:25:31;9.90;85.70
63094;DHT22;49183;51.380;0.098;2023-12-20T12:28:01;9.90;85.80
63094;DHT22;49183;51.380;0.098;2023-12-20T12:30:29;9.80;86.00
63094;DHT22;49183;51.380;0.098;2023-12-20T12:33:05;9.80;86.50
63094;DHT22;49183;51.380;0.098;2023-12-20T12:35:34;9.60;86.90
63094;DHT22;49183;51.380;0.098;2023-12-20T12:38:03;9.50;87.50
63094;DHT22;49183;51.380;0.098;2023-12-20T12:40:34;9.40;87.90
63094;DHT22;49183;51.380;0.098;2023-12-20T12:43:04;9.40;88.20
63094;DHT22;49183;51.380;0.098;2023-12-20T12:45:33;9.30;88.60
63094;DHT22;49183;51.380;0.098;2023-12-20T12:48:02;9.30;88.90
63094;DHT22;49183;51.380;0.098;2023-12-20T12:50:31;9.20;89.20
63094;DHT22;49183;51.380;0.098;2023-12-20T12:52:59;9.20;89.50
63094;DHT22;49183;51.380;0.098;2023-12-20T12:55:28;9.10;89.80
63094;DHT22;49183;51.380;0.098;2023-12-20T12:57:56;9.10;90.00
63094;DHT22;49183;51.380;0.098;2023-12-20T13:00:24;9.10;90.10
63094;DHT22;49183;51.380;0.098;2023-12-20T13:02:53;9.10;90.20
63094;DHT22;49183;51.380;0.098;2023-12-20T13:05:21;9.10;90.20
63094;DHT22;49183;51.380;0.098;2023-12-20T13:07:49;9.20;90.30
63094;DHT22;49183;51.380;0.098;2023-12-20T13:10:17;9.20;90.20
63094;DHT22;49183;51.380;0.098;2023-12-20T13:12:45;9.30;90.10
63094;DHT22;49183;51.380;0.098;2023-12-20T13:15:14;9.30;90.00
63094;DHT22;49183;51.380;0.098;2023-12-20T13:17:42;9.40;89.80
63094;DHT22;49183;51.380;0.098;2023-12-20T13:20:11;9.50;89.60
63094;DHT22;49183;51.380;0.098;2023-12-20T13:22:39;9.60;89.30
63094;DHT22;49183;51.380;0.098;2023-12-20T13:25:08;9.70;89.00
63094;DHT22;49183;51.380;0.098;2023-12-20T13:27:36;9.70;88.90
63094;DHT22;49183;51.380;0.098;2023-12-20T13:30:05;9.80;88.70
63094;DHT22;49183;51.380;0.098;2023-12-20T13:32:34;9.80;88.50
63094;DHT22;49183;51.380;0.098;2023-12-20T13:35:02;9.80;88.40
63094;DHT22;49183;51.380;0.098;2023-12-20T13:37:33;9.90;88.20
63094;DHT22;49183;51.380;0.098;2023-12-20T13:40:01;9.90;88.10
63094;DHT22;49183;51.380;0.098;2023-12-20T13:42:31;10.00;88.00
63094;DHT22;49183;51.380;0.098;2023-12-20T13:44:59;10.00;87.80
63094;DHT22;49183;51.380;0.098;2023-12-20T13:47:27;10.00;87.70
63094;DHT22;49183;51.380;0.098;2023-12-20T13:49:57;10.00;87.50
63094;DHT22;49183;51.380;0.098;2023-12-20T13:52:25;10.00;87.20
63094;DHT22;49183;51.380;0.098;2023-12-20T13:54:53;10.10;87.00
63094;DHT22;49183;51.380;0.098;2023-12-20T13:57:21;10.00;86.90
63094;DHT22;49183;51.380;0.098;2023-12-20T14:00:10;10.10;86.80
63094;DHT22;49183;51.380;0.098;2023-12-20T14:02:43;10.10;86.70
63094;DHT22;49183;51.380;0.098;2023-12-20T14:05:12;10.10;86.60
63094;DHT22;49183;51.380;0.098;2023-12-20T14:07:42;10.10;86.50
63094;DHT22;49183;51.380;0.098;2023-12-20T14:10:14;10.10;86.40
63094;DHT22;49183;51.380;0.098;2023-12-20T14:12:42;10.10;86.40
63094;DHT22;49183;51.380;0.098;2023-12-20T14:15:11;10.10;86.30
63094;DHT22;49183;51.380;0.098;2023-12-20T14:17:41;10.10;86.30
63094;DHT22;49183;51.380;0.098;2023-12-20T14:20:13;10.10;86.20
63094;DHT22;49183;51.380;0.098;2023-12-20T14:22:41;10.10;86.20
63094;DHT22;49183;51.380;0.098;2023-12-20T14:25:12;10.10;86.30
63094;DHT22;49183;51.380;0.098;2023-12-20T14:27:42;10.10;86.40
63094;DHT22;49183;51.380;0.098;2023-12-20T14:30:12;10.10;86.30
63094;DHT22;49183;51.380;0.098;2023-12-20T14:32:42;10.10;86.30
63094;DHT22;49183;51.380;0.098;2023-12-20T14:35:11;10.10;86.20
63094;DHT22;49183;51.380;0.098;2023-12-20T14:37:40;10.10;86.30
63094;DHT22;49183;51.380;0.098;2023-12-20T14:40:09;10.10;86.20
63094;DHT22;49183;51.380;0.098;2023-12-20T14:42:45;10.20;86.20
63094;DHT22;49183;51.380;0.098;2023-12-20T14:45:15;10.10;86.10
63094;DHT22;49183;51.380;0.098;2023-12-20T14:47:44;10.20;86.00
63094;DHT22;49183;51.380;0.098;2023-12-20T14:50:13;10.20;86.00
63094;DHT22;49183;51.380;0.098;2023-12-20T14:52:47;10.20;86.10
63094;DHT22;49183;51.380;0.098;2023-12-20T14:55:14;10.10;86.10
63094;DHT22;49183;51.380;0.098;2023-12-20T14:57:43;10.20;86.10
63094;DHT22;49183;51.380;0.098;2023-12-20T15:00:12;10.20;86.10
63094;DHT22;49183;51.380;0.098;2023-12-20T15:02:45;10.20;86.10
63094;DHT22;49183;51.380;0.098;2023-12-20T15:05:13;10.20;86.20
63094;DHT22;49183;51.380;0.098;2023-12-20T15:07:42;10.20;86.20
63094;DHT22;49183;51.380;0.098;2023-12-20T15:10:10;10.20;86.20
63094;DHT22;49183;51.380;0.098;2023-12-20T15:12:39;10.20;86.20
63094;DHT22;49183;51.380;0.098;2023-12-20T15:15:07;10.20;86.20
63094;DHT22;49183;51.380;0.098;2023-12-20T15:17:37;10.20;86.30
63094;DHT22;49183;51.380;0.098;2023-12-20T15:20:05;10.20;86.30
63094;DHT22;49183;51.380;0.098;2023-12-20T15:22:37;10.20;86.30
63094;DHT22;49183;51.380;0.098;2023-12-20T15:25:07;10.20;86.30
63094;DHT22;49183;51.380;0.098;2023-12-20T15:27:36;10.20;86.30
63094;DHT22;49183;51.380;0.098;2023-12-20T15:30:06;10.20;86.30
63094;DHT22;49183;51.380;0.098;2023-12-20T15:32:37;10.20;86.20
63094;DHT22;49183;51.380;0.098;2023-12-20T15:35:06;10.20;86.30
63094;DHT22;49183;51.380;0.098;2023-12-20T15:37:34;10.20;86.30
63094;DHT22;49183;51.380;0.098;2023-12-20T15:40:02;10.20;86.30
63094;DHT22;49183;51.380;0.098;2023-12-20T15:42:33;10.20;86.30
63094;DHT22;49183;51.380;0.098;2023-12-20T15:45:04;10.20;86.20
63094;DHT22;49183;51.380;0.098;2023-12-20T15:47:36;10.20;86.20
63094;DHT22;49183;51.380;0.098;2023-12-20T15:50:05;10.30;86.10
63094;DHT22;49183;51.380;0.098;2023-12-20T15:52:35;10.20;86.10
63094;DHT22;49183;51.380;0.098;2023-12-20T15:55:04;10.30;85.80
63094;DHT22;49183;51.380;0.098;2023-12-20T15:57:32;10.30;85.70
63094;DHT22;49183;51.380;0.098;2023-12-20T16:00:16;10.30;85.60
63094;DHT22;49183;51.380;0.098;2023-12-20T16:02:44;10.30;85.50
63094;DHT22;49183;51.380;0.098;2023-12-20T16:05:11;10.30;85.40